Time;durP1;ratioP1;P1;durP2;ratioP2;P2;SDS_P1;SDS_P2;PMS_P1;PMS_P2;Temp;Humidity;BMP_temperature;BMP_pressure;BME280_temperature;BME280_humidity;BME280_pressure;Samples;Min_cycle;Max_cycle;Signal;HPM_P1;HPM_P2
2024/04/02 00:00:52;;;;;;;1.13;0.55;;;9.80;99.90;;;;;;4995686;28;20026;-73
2024/04/02 00:03:19;;;;;;;1.10;0.80;;;9.80;99.90;;;;;;4993576;28;20053;-74
2024/04/02 00:05:45;;;;;;;1.25;0.50;;;9.80;99.90;;;;;;4995954;28;20037;-74
2024/04/02 00:08:11;;;;;;;2.85;0.60;;;9.80;99.90;;;;;;4947744;28;1373758;-74
2024/04/02 00:10:38;;;;;;;1.60;0.70;;;9.70;99.90;;;;;;4996823;28;20456;-73
2024/04/02 00:13:05;;;;;;;2.58;0.68;;;9.80;99.90;;;;;;4996382;28;20361;-74
2024/04/02 00:15:31;;;;;;;1.38;0.73;;;9.80;99.90;;;;;;4996424;28;20477;-73
2024/04/02 00:18:02;;;;;;;1.67;1.05;;;9.80;99.90;;;;;;4995858;28;20034;-74
2024/04/02 00:20:28;;;;;;;5.03;0.85;;;9.90;99.90;;;;;;4996439;28;20364;-73
2024/04/02 00:22:54;;;;;;;1.50;0.80;;;9.80;99.90;;;;;;4996236;28;20110;-73
2024/04/02 00:25:21;;;;;;;1.42;0.88;;;9.80;99.90;;;;;;4996066;28;20026;-73
2024/04/02 00:27:47;;;;;;;1.05;0.60;;;9.90;99.90;;;;;;4996004;28;20049;-73
2024/04/02 00:30:27;;;;;;;2.35;1.00;;;9.80;99.90;;;;;;4996128;28;20027;-73
2024/04/02 00:32:54;;;;;;;1.60;0.77;;;9.80;99.90;;;;;;4994484;28;20049;-73
2024/04/02 00:35:21;;;;;;;1.25;0.90;;;9.80;99.90;;;;;;4995678;28;20026;-73
2024/04/02 00:37:48;;;;;;;0.85;0.70;;;9.90;99.90;;;;;;4996406;28;20034;-73
2024/04/02 00:40:15;;;;;;;2.20;0.80;;;9.90;99.90;;;;;;4995340;28;20377;-73
2024/04/02 00:42:42;;;;;;;0.88;0.80;;;9.90;99.90;;;;;;4995913;28;20385;-73
2024/04/02 00:45:08;;;;;;;2.13;0.85;;;9.90;99.90;;;;;;4995579;28;20372;-74
2024/04/02 00:47:35;;;;;;;2.05;1.00;;;10.00;99.90;;;;;;4994797;28;20030;-74
2024/04/02 00:50:05;;;;;;;1.30;1.00;;;9.90;99.90;;;;;;4996111;28;20033;-74
2024/04/02 00:52:32;;;;;;;2.00;1.00;;;10.00;99.90;;;;;;4996060;28;20026;-73
2024/04/02 00:54:59;;;;;;;1.30;0.70;;;10.00;99.90;;;;;;4995575;28;20481;-74
2024/04/02 00:57:25;;;;;;;1.35;0.80;;;10.10;99.90;;;;;;4995769;28;20041;-73
2024/04/02 00:59:52;;;;;;;1.00;0.52;;;10.10;99.90;;;;;;4995062;28;20046;-74
2024/04/02 01:02:19;;;;;;;1.48;0.82;;;10.10;99.90;;;;;;4995578;28;20038;-73
2024/04/02 01:04:47;;;;;;;1.92;0.93;;;10.10;99.90;;;;;;4995609;28;20026;-74
2024/04/02 01:07:16;;;;;;;1.98;0.82;;;10.10;99.90;;;;;;4995871;28;20033;-73
2024/04/02 01:09:45;;;;;;;1.00;0.57;;;10.10;99.90;;;;;;4995028;28;20380;-73
2024/04/02 01:12:12;;;;;;;1.33;0.60;;;10.10;99.90;;;;;;4994927;28;20453;-74
2024/04/02 01:14:41;;;;;;;2.47;0.60;;;10.10;99.90;;;;;;4995003;28;20038;-73
2024/04/02 01:17:08;;;;;;;1.00;0.70;;;10.10;99.90;;;;;;4994890;28;20034;-73
2024/04/02 01:19:35;;;;;;;0.85;0.63;;;10.10;99.90;;;;;;4995082;28;20030;-73
2024/04/02 01:22:02;;;;;;;0.98;0.70;;;10.00;99.90;;;;;;4993326;28;20045;-73
2024/04/02 01:24:29;;;;;;;1.10;0.80;;;10.10;99.90;;;;;;4995415;28;20034;-73
2024/04/02 01:26:56;;;;;;;1.48;0.90;;;10.10;99.90;;;;;;4994706;28;20503;-73
2024/04/02 01:29:22;;;;;;;1.25;0.70;;;10.10;99.90;;;;;;4994843;28;20034;-73
2024/04/02 01:31:51;;;;;;;2.08;0.80;;;10.10;99.90;;;;;;4994994;28;20026;-73
2024/04/02 01:34:18;;;;;;;1.08;0.77;;;10.10;99.90;;;;;;4994618;28;20034;-73
2024/04/02 01:36:44;;;;;;;1.23;0.60;;;10.10;99.90;;;;;;4993433;28;20400;-73
2024/04/02 01:39:10;;;;;;;1.27;0.60;;;10.10;99.90;;;;;;4994718;28;20030;-72
2024/04/02 01:41:36;;;;;;;0.80;0.65;;;10.10;99.90;;;;;;4994865;28;20029;-73
2024/04/02 01:44:03;;;;;;;0.70;0.50;;;10.10;99.90;;;;;;4994902;28;20050;-73
2024/04/02 01:46:30;;;;;;;1.38;0.60;;;10.00;99.90;;;;;;4994670;28;20023;-73
2024/04/02 01:48:56;;;;;;;0.60;0.50;;;10.00;99.90;;;;;;4994710;28;20030;-73
2024/04/02 01:51:23;;;;;;;0.75;0.65;;;10.00;99.90;;;;;;4994561;28;20018;-73
2024/04/02 01:53:49;;;;;;;2.78;0.80;;;10.00;99.90;;;;;;4993977;28;20046;-74
2024/04/02 01:56:15;;;;;;;1.30;0.80;;;9.90;99.90;;;;;;4994412;28;20026;-73
2024/04/02 01:58:41;;;;;;;1.85;1.10;;;9.90;99.90;;;;;;4994001;28;20026;-73
2024/04/02 02:01:07;;;;;;;2.20;1.20;;;9.90;99.90;;;;;;4994556;28;20034;-73
2024/04/02 02:03:34;;;;;;;3.03;1.08;;;10.00;99.90;;;;;;4994310;28;20038;-73
2024/04/02 02:06:00;;;;;;;3.53;1.20;;;10.00;99.90;;;;;;4994415;28;20026;-73
2024/04/02 02:08:26;;;;;;;1.80;1.27;;;10.00;99.90;;;;;;4994164;28;20046;-74
2024/04/02 02:10:56;;;;;;;1.83;1.00;;;10.00;99.90;;;;;;4994868;28;20038;-73
2024/04/02 02:13:23;;;;;;;1.63;1.10;;;10.00;99.90;;;;;;4994340;28;20031;-73
2024/04/02 02:16:00;;;;;;;2.08;1.40;;;10.00;99.90;;;;;;4993153;28;20034;-73
2024/04/02 02:18:29;;;;;;;1.58;1.15;;;10.00;99.90;;;;;;4993066;28;20049;-73
2024/04/02 02:20:56;;;;;;;1.40;1.15;;;10.00;99.90;;;;;;4994194;28;20025;-74
2024/04/02 02:23:26;;;;;;;1.73;1.30;;;10.00;99.90;;;;;;4994068;28;20038;-72
2024/04/02 02:25:52;;;;;;;1.60;1.10;;;10.00;99.90;;;;;;4994034;28;20404;-73
2024/04/02 02:28:19;;;;;;;2.45;1.50;;;10.00;99.90;;;;;;4994249;28;20038;-72
2024/04/02 02:30:45;;;;;;;2.67;1.67;;;10.00;99.90;;;;;;4994290;28;20461;-73
2024/04/02 02:33:12;;;;;;;3.45;1.50;;;10.00;99.90;;;;;;4992685;28;20523;-72
2024/04/02 02:35:39;;;;;;;2.63;1.95;;;9.90;99.90;;;;;;4994087;28;20030;-74
2024/04/02 02:38:06;;;;;;;3.47;2.17;;;10.00;99.90;;;;;;4994059;28;20030;-73
2024/04/02 02:40:32;;;;;;;2.70;1.92;;;10.00;99.90;;;;;;4993910;28;20369;-73
2024/04/02 02:42:58;;;;;;;3.13;1.92;;;10.00;99.90;;;;;;4994009;28;20030;-74
2024/04/02 02:45:25;;;;;;;2.35;1.92;;;10.00;99.90;;;;;;4993970;28;20035;-73
2024/04/02 02:47:51;;;;;;;2.90;2.42;;;9.90;99.90;;;;;;4994022;28;20373;-73
2024/04/02 02:50:18;;;;;;;4.00;2.47;;;9.90;99.90;;;;;;4993741;28;20026;-72
2024/04/02 02:52:44;;;;;;;2.72;2.17;;;9.90;99.90;;;;;;4994075;28;20030;-73
2024/04/02 02:55:10;;;;;;;3.80;2.40;;;9.90;99.90;;;;;;4994209;28;20034;-73
2024/04/02 02:57:37;;;;;;;4.50;2.03;;;9.90;99.90;;;;;;4994039;28;20030;-73
2024/04/02 03:00:07;;;;;;;2.85;2.20;;;9.90;99.90;;;;;;4993864;28;20050;-73
2024/04/02 03:02:34;;;;;;;3.80;1.90;;;9.90;99.90;;;;;;4993926;28;20038;-73
2024/04/02 03:05:01;;;;;;;2.72;1.98;;;9.90;99.90;;;;;;4993679;28;20049;-73
2024/04/02 03:07:27;;;;;;;2.50;1.85;;;9.90;99.90;;;;;;4994338;28;20038;-72
2024/04/02 03:09:54;;;;;;;3.03;2.20;;;9.80;99.90;;;;;;4994139;28;20049;-73
2024/04/02 03:12:20;;;;;;;2.53;1.98;;;9.80;99.90;;;;;;4997591;28;20026;-73
2024/04/02 03:14:47;;;;;;;2.60;1.50;;;9.90;99.90;;;;;;4997661;28;20365;-73
2024/04/02 03:17:13;;;;;;;2.20;1.40;;;9.80;99.90;;;;;;4997416;28;20037;-73
2024/04/02 03:19:39;;;;;;;2.08;1.50;;;9.90;99.90;;;;;;4997127;28;20484;-73
2024/04/02 03:22:05;;;;;;;2.83;1.40;;;9.90;99.90;;;;;;4997326;28;20037;-72
2024/04/02 03:24:31;;;;;;;1.38;1.00;;;9.90;99.90;;;;;;4997502;28;20049;-73
2024/04/02 03:26:58;;;;;;;1.27;1.00;;;9.90;99.90;;;;;;4997254;28;20026;-73
2024/04/02 03:29:24;;;;;;;1.02;0.85;;;9.80;99.90;;;;;;4997260;28;20389;-73
2024/04/02 03:31:50;;;;;;;0.90;0.77;;;9.80;99.90;;;;;;4997105;28;20022;-73
2024/04/02 03:34:17;;;;;;;1.52;0.63;;;9.80;99.90;;;;;;4996840;28;20491;-72
2024/04/02 03:36:43;;;;;;;2.78;0.77;;;9.80;99.90;;;;;;4996912;28;20030;-73
2024/04/02 03:39:09;;;;;;;0.95;0.57;;;9.80;99.90;;;;;;4996522;28;20027;-73
2024/04/02 03:41:36;;;;;;;0.60;0.50;;;9.90;99.90;;;;;;4996574;28;20114;-72
2024/04/02 03:44:02;;;;;;;0.60;0.50;;;9.90;99.90;;;;;;4996745;28;20038;-74
2024/04/02 03:46:29;;;;;;;1.08;0.50;;;9.90;99.90;;;;;;4997097;28;20027;-73
2024/04/02 03:48:55;;;;;;;0.77;0.45;;;9.90;99.90;;;;;;4996625;28;20476;-73
2024/04/02 03:51:21;;;;;;;2.15;0.50;;;9.90;99.90;;;;;;4996646;28;20037;-73
2024/04/02 03:53:47;;;;;;;0.68;0.40;;;10.00;99.90;;;;;;4996217;28;20045;-73
2024/04/02 03:56:14;;;;;;;0.30;0.30;;;9.90;99.90;;;;;;4996708;28;20018;-73
2024/04/02 03:58:40;;;;;;;1.40;0.60;;;9.90;99.90;;;;;;4996538;28;20027;-72
2024/04/02 04:01:08;;;;;;;0.60;0.40;;;9.90;99.90;;;;;;4996387;28;20026;-73
2024/04/02 04:03:35;;;;;;;0.40;0.30;;;9.90;99.90;;;;;;4996502;28;20038;-73
2024/04/02 04:06:05;;;;;;;1.23;0.40;;;9.90;99.90;;;;;;4996561;28;20026;-72
2024/04/02 04:08:32;;;;;;;0.98;0.38;;;10.00;99.90;;;;;;4996284;28;20061;-72
2024/04/02 04:10:59;;;;;;;0.30;0.30;;;9.90;99.90;;;;;;4996316;28;20096;-71
2024/04/02 04:13:26;;;;;;;0.38;0.30;;;9.90;99.90;;;;;;4996265;28;20038;-73
2024/04/02 04:16:00;;;;;;;0.50;0.32;;;9.90;99.90;;;;;;4996028;28;20022;-72
2024/04/02 04:18:27;;;;;;;2.67;0.63;;;9.80;99.90;;;;;;4996421;28;20034;-73
2024/04/02 04:20:58;;;;;;;0.70;0.50;;;9.80;99.90;;;;;;4996199;28;20042;-72
2024/04/02 04:23:25;;;;;;;0.65;0.35;;;9.70;99.90;;;;;;4995723;28;20053;-72
2024/04/02 04:25:58;;;;;;;0.25;0.25;;;9.70;99.90;;;;;;4996005;28;20469;-73
2024/04/02 04:28:25;;;;;;;1.35;0.43;;;9.60;99.90;;;;;;4996337;28;20041;-73
2024/04/02 04:30:52;;;;;;;0.75;0.43;;;9.70;99.90;;;;;;4996367;28;20038;-72
2024/04/02 04:33:19;;;;;;;0.40;0.40;;;9.70;99.90;;;;;;4996001;28;20358;-72
2024/04/02 04:35:46;;;;;;;0.45;0.30;;;9.70;99.90;;;;;;4995756;28;20033;-72
2024/04/02 04:38:13;;;;;;;0.60;0.30;;;9.70;99.90;;;;;;4995841;28;20026;-74
2024/04/02 04:40:40;;;;;;;1.00;0.50;;;9.70;99.90;;;;;;4995738;28;20488;-72
2024/04/02 04:43:07;;;;;;;0.50;0.40;;;9.70;99.90;;;;;;4995496;28;20042;-72
2024/04/02 04:45:34;;;;;;;0.70;0.40;;;9.80;99.90;;;;;;4995697;28;20022;-73
2024/04/02 04:48:04;;;;;;;0.55;0.30;;;9.80;99.90;;;;;;4995736;28;20031;-72
2024/04/02 04:50:30;;;;;;;0.35;0.30;;;9.80;99.90;;;;;;4995734;28;20030;-71
2024/04/02 04:52:57;;;;;;;0.98;0.50;;;9.80;99.90;;;;;;4995515;28;20130;-73
2024/04/02 04:55:24;;;;;;;1.08;0.40;;;9.80;99.90;;;;;;4995354;28;20034;-72
2024/04/02 04:57:50;;;;;;;0.45;0.32;;;9.90;99.90;;;;;;4995675;28;20037;-72
2024/04/02 05:00:17;;;;;;;1.02;0.50;;;9.90;99.90;;;;;;4995329;28;20034;-73
2024/04/02 05:02:43;;;;;;;0.55;0.52;;;9.90;99.90;;;;;;4995324;28;20033;-72
2024/04/02 05:05:10;;;;;;;1.00;0.60;;;9.90;99.90;;;;;;4995183;28;20049;-72
2024/04/02 05:07:36;;;;;;;5.20;0.73;;;9.90;99.90;;;;;;4994734;28;20469;-69
2024/04/02 05:10:04;;;;;;;0.43;0.38;;;9.90;99.90;;;;;;4994903;28;20053;-72
2024/04/02 05:12:30;;;;;;;1.25;0.50;;;10.00;99.90;;;;;;4994968;28;20027;-72
2024/04/02 05:14:56;;;;;;;1.02;0.50;;;10.00;99.90;;;;;;4994666;28;20033;-72
2024/04/02 05:17:23;;;;;;;0.60;0.43;;;10.00;99.90;;;;;;4994854;28;20026;-72
2024/04/02 05:19:50;;;;;;;1.20;0.40;;;10.00;99.90;;;;;;4994878;28;20487;-74
2024/04/02 05:22:17;;;;;;;0.55;0.40;;;10.00;99.90;;;;;;4994873;28;20381;-73
2024/04/02 05:24:43;;;;;;;1.20;0.60;;;10.00;99.90;;;;;;4994884;28;20045;-73
2024/04/02 05:27:09;;;;;;;0.50;0.40;;;10.00;99.90;;;;;;4994882;28;20018;-72
2024/04/02 05:29:35;;;;;;;0.60;0.50;;;10.00;99.90;;;;;;4994857;28;20041;-72
2024/04/02 05:32:01;;;;;;;0.90;0.50;;;10.10;99.90;;;;;;4995042;28;20046;-72
2024/04/02 05:34:28;;;;;;;0.50;0.50;;;10.10;99.90;;;;;;4994070;28;20031;-73
2024/04/02 05:36:54;;;;;;;0.77;0.50;;;10.10;99.90;;;;;;4995502;28;20034;-72
2024/04/02 05:39:20;;;;;;;0.80;0.47;;;10.20;99.90;;;;;;4994723;28;20033;-73
2024/04/02 05:41:46;;;;;;;0.60;0.40;;;10.20;99.90;;;;;;4995143;28;20026;-72
2024/04/02 05:44:13;;;;;;;0.40;0.40;;;10.20;99.90;;;;;;4994542;28;20034;-73
2024/04/02 05:46:39;;;;;;;0.65;0.50;;;10.20;99.90;;;;;;4994554;28;20034;-72
2024/04/02 05:49:05;;;;;;;0.63;0.40;;;10.20;99.90;;;;;;4994146;28;20046;-73
2024/04/02 05:51:31;;;;;;;0.50;0.40;;;10.20;99.90;;;;;;4994443;28;20447;-73
2024/04/02 05:53:58;;;;;;;0.40;0.25;;;10.20;99.90;;;;;;4994361;28;20035;-72
2024/04/02 05:56:24;;;;;;;0.75;0.43;;;10.30;99.90;;;;;;4994566;28;20045;-72
2024/04/02 05:58:50;;;;;;;0.35;0.35;;;10.30;99.90;;;;;;4994344;28;20030;-73
2024/04/02 06:01:16;;;;;;;0.38;0.38;;;10.30;99.90;;;;;;4994400;28;20030;-72
2024/04/02 06:03:42;;;;;;;0.30;0.30;;;10.30;99.90;;;;;;4994303;28;20380;-73
2024/04/02 06:06:09;;;;;;;0.57;0.40;;;10.40;99.90;;;;;;4986611;28;20034;-71
2024/04/02 06:08:35;;;;;;;0.25;0.25;;;10.40;99.90;;;;;;4996501;28;20069;-72
2024/04/02 06:11:04;;;;;;;1.02;0.40;;;10.40;99.90;;;;;;5005774;28;20028;-72
2024/04/02 06:13:31;;;;;;;2.97;0.40;;;10.40;99.90;;;;;;5005578;28;20038;-72
2024/04/02 06:15:57;;;;;;;1.20;0.40;;;10.40;99.90;;;;;;5003961;28;20037;-72
2024/04/02 06:18:24;;;;;;;0.50;0.40;;;10.50;99.90;;;;;;5000834;28;20468;-72
2024/04/02 06:20:57;;;;;;;1.25;0.40;;;10.50;99.90;;;;;;5000443;28;20061;-71
2024/04/02 06:23:24;;;;;;;0.40;0.32;;;10.60;99.90;;;;;;5001187;28;20038;-72
2024/04/02 06:25:50;;;;;;;2.15;0.50;;;10.60;99.90;;;;;;4991657;28;20045;-72
2024/04/02 06:28:16;;;;;;;0.30;0.30;;;10.60;99.90;;;;;;4991291;28;20042;-72
2024/04/02 06:30:43;;;;;;;1.15;0.40;;;10.70;99.90;;;;;;4991855;28;20035;-73
2024/04/02 06:33:09;;;;;;;0.43;0.40;;;10.70;99.90;;;;;;4992771;28;20026;-72
2024/04/02 06:35:36;;;;;;;0.40;0.30;;;10.80;99.90;;;;;;4992951;28;20037;-71
2024/04/02 06:38:02;;;;;;;0.93;0.50;;;10.80;99.90;;;;;;4993437;28;20031;-72
2024/04/02 06:40:28;;;;;;;0.98;0.63;;;10.80;99.90;;;;;;4993570;28;20026;-72
2024/04/02 06:42:54;;;;;;;1.58;0.60;;;10.90;99.90;;;;;;4993231;28;20043;-72
2024/04/02 06:45:21;;;;;;;1.05;0.60;;;10.90;99.90;;;;;;4994357;28;20034;-72
2024/04/02 06:47:47;;;;;;;2.85;0.50;;;10.90;99.90;;;;;;4997342;28;20030;-72
2024/04/02 06:50:13;;;;;;;0.80;0.60;;;10.90;99.90;;;;;;4996638;28;20026;-72
2024/04/02 06:52:39;;;;;;;2.40;0.75;;;10.90;99.90;;;;;;4997133;28;20022;-72
2024/04/02 06:55:06;;;;;;;1.02;0.65;;;10.90;99.90;;;;;;4997195;28;20041;-71
2024/04/02 06:57:32;;;;;;;0.75;0.57;;;11.00;99.90;;;;;;4997029;28;20033;-72
2024/04/02 06:59:58;;;;;;;1.88;0.68;;;11.00;99.90;;;;;;4997018;28;20026;-71
2024/04/02 07:02:26;;;;;;;2.45;1.10;;;11.10;99.90;;;;;;4995037;28;20499;-71
2024/04/02 07:04:52;;;;;;;3.08;0.90;;;11.20;99.90;;;;;;4996114;28;20050;-71
2024/04/02 07:07:19;;;;;;;2.97;0.93;;;11.20;99.90;;;;;;4996697;28;20052;-73
2024/04/02 07:09:45;;;;;;;3.65;1.20;;;11.20;99.90;;;;;;4996673;28;20054;-72
2024/04/02 07:12:11;;;;;;;1.50;0.80;;;11.30;99.90;;;;;;4996901;28;20026;-72
2024/04/02 07:14:37;;;;;;;0.90;0.65;;;11.40;99.90;;;;;;4996673;28;20030;-72
2024/04/02 07:17:03;;;;;;;4.10;0.55;;;11.50;99.90;;;;;;4996842;28;20041;-72
2024/04/02 07:19:30;;;;;;;0.57;0.47;;;11.50;99.90;;;;;;4996075;28;20034;-72
2024/04/02 07:21:56;;;;;;;0.82;0.50;;;11.60;99.90;;;;;;4995020;28;20038;-72
2024/04/02 07:24:22;;;;;;;1.33;0.60;;;11.60;99.90;;;;;;5014298;28;20042;-72
2024/04/02 07:26:49;;;;;;;0.60;0.40;;;11.70;99.90;;;;;;5016219;28;20026;-72
2024/04/02 07:29:15;;;;;;;1.25;0.50;;;11.70;99.90;;;;;;5016096;28;20033;-73
2024/04/02 07:31:41;;;;;;;0.85;0.40;;;11.80;99.90;;;;;;5016011;28;20037;-72
2024/04/02 07:34:07;;;;;;;1.77;0.85;;;11.80;99.90;;;;;;5015420;28;20384;-72
2024/04/02 07:36:33;;;;;;;0.47;0.40;;;11.90;99.90;;;;;;5015816;28;20030;-73
2024/04/02 07:38:59;;;;;;;0.60;0.40;;;12.00;99.90;;;;;;5012178;28;20500;-72
2024/04/02 07:41:26;;;;;;;0.35;0.32;;;12.10;99.90;;;;;;4986615;28;20035;-73
2024/04/02 07:43:52;;;;;;;0.93;0.43;;;12.20;99.90;;;;;;4977363;28;20042;-73
2024/04/02 07:46:18;;;;;;;1.65;0.50;;;12.20;99.90;;;;;;4980036;28;20045;-72
2024/04/02 07:48:44;;;;;;;0.70;0.40;;;12.20;99.90;;;;;;4985988;28;20046;-73
2024/04/02 07:51:11;;;;;;;0.95;0.50;;;12.30;99.90;;;;;;4985792;28;20034;-72
2024/04/02 07:53:37;;;;;;;1.30;0.50;;;12.40;99.90;;;;;;4987133;28;20386;-72
2024/04/02 07:56:03;;;;;;;0.80;0.50;;;12.40;99.90;;;;;;4985461;28;20027;-72
2024/04/02 07:58:30;;;;;;;1.25;0.55;;;12.50;99.90;;;;;;4985758;28;20034;-72
2024/04/02 08:00:56;;;;;;;1.63;0.40;;;12.50;99.90;;;;;;4985569;28;20026;-73
2024/04/02 08:03:22;;;;;;;0.47;0.30;;;12.60;99.90;;;;;;4985556;28;20022;-73
2024/04/02 08:05:58;;;;;;;1.35;0.30;;;12.70;99.90;;;;;;4985862;28;20031;-73
2024/04/02 08:08:24;;;;;;;0.75;0.50;;;12.80;99.90;;;;;;4993719;28;20046;-73
2024/04/02 08:10:51;;;;;;;0.95;0.45;;;12.80;99.90;;;;;;4996687;28;20053;-73
2024/04/02 08:13:17;;;;;;;0.43;0.30;;;12.80;99.90;;;;;;4996105;28;20457;-73
2024/04/02 08:15:46;;;;;;;0.40;0.30;;;12.80;99.90;;;;;;4996345;28;20034;-73
2024/04/02 08:18:13;;;;;;;0.52;0.40;;;13.00;99.90;;;;;;4994250;28;20038;-73
2024/04/02 08:20:39;;;;;;;0.55;0.30;;;13.10;99.90;;;;;;4996089;28;20026;-72
2024/04/02 08:23:08;;;;;;;0.77;0.35;;;13.10;99.90;;;;;;4995941;28;20365;-74
2024/04/02 08:25:35;;;;;;;1.25;0.30;;;13.10;99.90;;;;;;4995487;28;20126;-74
2024/04/02 08:28:02;;;;;;;0.47;0.40;;;13.10;99.90;;;;;;4995648;28;20050;-74
2024/04/02 08:30:28;;;;;;;0.82;0.30;;;13.20;99.90;;;;;;4995825;28;20030;-73
2024/04/02 08:32:54;;;;;;;0.80;0.47;;;13.20;99.90;;;;;;4994434;28;20034;-72
2024/04/02 08:35:20;;;;;;;1.35;0.30;;;13.30;99.90;;;;;;4995672;28;20041;-71
2024/04/02 08:37:47;;;;;;;1.27;0.40;;;13.40;99.90;;;;;;4995813;28;20045;-72
2024/04/02 08:40:13;;;;;;;0.98;0.30;;;13.40;99.90;;;;;;4995690;28;20022;-72
2024/04/02 08:42:40;;;;;;;0.95;0.40;;;13.50;99.90;;;;;;4995536;28;20033;-72
2024/04/02 08:45:09;;;;;;;0.63;0.35;;;13.60;99.90;;;;;;4995575;28;20045;-72
2024/04/02 08:47:37;;;;;;;1.08;0.32;;;13.80;99.90;;;;;;4995621;28;20368;-72
2024/04/02 08:50:08;;;;;;;3.72;0.30;;;13.70;99.90;;;;;;4995727;28;20034;-72
2024/04/02 08:52:34;;;;;;;0.30;0.30;;;13.90;99.90;;;;;;4994067;28;20050;-72
2024/04/02 08:55:01;;;;;;;0.70;0.20;;;14.00;99.90;;;;;;4995393;28;20026;-71
2024/04/02 08:57:29;;;;;;;2.78;0.50;;;14.00;99.90;;;;;;4995871;28;20022;-72
2024/04/02 08:59:57;;;;;;;0.70;0.38;;;14.20;99.90;;;;;;4995648;28;20049;-71
2024/04/02 09:02:24;;;;;;;0.55;0.32;;;14.20;99.90;;;;;;4994651;28;20057;-72
2024/04/02 09:04:52;;;;;;;2.47;0.43;;;14.30;99.90;;;;;;4994930;28;20383;-72
2024/04/02 09:07:18;;;;;;;1.08;0.45;;;14.40;99.90;;;;;;4995560;28;20022;-72
2024/04/02 09:09:44;;;;;;;0.73;0.40;;;14.50;99.90;;;;;;4994565;28;20050;-72
2024/04/02 09:12:11;;;;;;;0.47;0.30;;;14.50;99.90;;;;;;4995020;28;20465;-72
2024/04/02 09:14:38;;;;;;;0.28;0.20;;;14.60;99.90;;;;;;4995196;28;20461;-71
2024/04/02 09:17:08;;;;;;;1.15;0.20;;;14.60;99.90;;;;;;4995133;28;20022;-73
2024/04/02 09:19:34;;;;;;;0.60;0.35;;;14.70;99.90;;;;;;4994679;28;20034;-72
2024/04/02 09:22:00;;;;;;;0.28;0.28;;;14.80;99.90;;;;;;4995213;28;20030;-74
2024/04/02 09:24:27;;;;;;;0.28;0.28;;;14.70;99.90;;;;;;4994759;28;20045;-74
2024/04/02 09:26:53;;;;;;;0.82;0.40;;;14.70;99.90;;;;;;4994908;28;20385;-74
2024/04/02 09:29:19;;;;;;;4.45;0.20;;;14.90;99.90;;;;;;4993664;28;20376;-73
2024/04/02 09:31:47;;;;;;;1.55;0.47;;;14.90;99.90;;;;;;4993159;28;20061;-74
2024/04/02 09:34:16;;;;;;;0.32;0.30;;;14.90;99.90;;;;;;4993381;28;20042;-74
2024/04/02 09:36:45;;;;;;;0.50;0.30;;;15.10;99.90;;;;;;4992661;28;20034;-74
2024/04/02 09:39:13;;;;;;;0.52;0.17;;;15.10;99.90;;;;;;4991687;28;20031;-74
2024/04/02 09:41:45;;;;;;;0.93;0.28;;;15.20;99.90;;;;;;4992393;28;20496;-77
2024/04/02 09:44:15;;;;;;;0.30;0.30;;;15.20;99.90;;;;;;4992736;28;20038;-76
2024/04/02 09:46:42;;;;;;;0.40;0.30;;;15.30;99.90;;;;;;4993238;28;20488;-76
2024/04/02 09:49:11;;;;;;;0.43;0.30;;;15.20;99.90;;;;;;4993492;28;20389;-76
2024/04/02 09:51:41;;;;;;;1.08;0.20;;;15.20;99.90;;;;;;4993256;28;20035;-76
2024/04/02 09:54:07;;;;;;;2.13;0.25;;;15.10;99.90;;;;;;4993983;28;20035;-75
2024/04/02 09:56:35;;;;;;;0.60;0.40;;;15.00;99.40;;;;;;4992439;28;20026;-72
2024/04/02 09:59:03;;;;;;;0.68;0.20;;;15.10;99.90;;;;;;4992174;28;20042;-67
2024/04/02 10:01:34;;;;;;;1.42;0.45;;;15.10;99.90;;;;;;4993448;28;20457;-69
2024/04/02 10:04:05;;;;;;;1.00;0.30;;;15.20;99.90;;;;;;4993265;28;20042;-70
2024/04/02 10:06:34;;;;;;;0.43;0.30;;;15.30;99.90;;;;;;4993414;28;20030;-69
2024/04/02 10:09:12;;;;;;;0.80;0.38;;;15.30;99.90;;;;;;4991867;28;20145;-70
2024/04/02 10:11:46;;;;;;;0.88;0.30;;;15.50;99.90;;;;;;4994069;28;20022;-70
2024/04/02 10:14:16;;;;;;;1.48;0.20;;;15.60;99.20;;;;;;4994079;28;20026;-69
2024/04/02 10:16:45;;;;;;;0.85;0.30;;;15.60;97.40;;;;;;4994226;28;20365;-69
2024/04/02 10:19:23;;;;;;;0.75;0.40;;;15.70;98.70;;;;;;4994717;28;20046;-69
2024/04/02 10:21:51;;;;;;;0.50;0.28;;;15.70;97.50;;;;;;4998382;28;20380;-70
2024/04/02 10:24:19;;;;;;;1.30;0.20;;;15.70;96.60;;;;;;4998167;28;20390;-69
2024/04/02 10:26:54;;;;;;;0.68;0.40;;;15.70;97.90;;;;;;4998565;28;20065;-69
2024/04/02 10:29:33;;;;;;;0.57;0.20;;;15.70;95.50;;;;;;4997983;28;20042;-70
2024/04/02 10:32:00;;;;;;;0.88;0.20;;;15.60;96.80;;;;;;4996872;28;20035;-68
2024/04/02 10:34:27;;;;;;;1.27;0.35;;;15.50;97.80;;;;;;4998175;28;20377;-67
2024/04/02 10:36:53;;;;;;;1.00;0.30;;;15.50;97.00;;;;;;4997961;28;20030;-67
2024/04/02 10:39:19;;;;;;;1.80;0.50;;;15.50;99.00;;;;;;4997645;28;20035;-69
2024/04/02 10:41:45;;;;;;;1.40;0.40;;;15.40;96.30;;;;;;4998389;28;20369;-68
2024/04/02 10:44:12;;;;;;;0.57;0.30;;;15.50;96.90;;;;;;4997956;28;20035;-68
2024/04/02 10:46:41;;;;;;;0.68;0.40;;;15.60;95.70;;;;;;4997960;28;20033;-68
2024/04/02 10:49:07;;;;;;;0.20;0.20;;;15.60;94.80;;;;;;4997728;28;20042;-68
2024/04/02 10:51:33;;;;;;;1.15;0.50;;;15.60;96.60;;;;;;4997624;28;20026;-67
2024/04/02 10:54:00;;;;;;;1.95;0.68;;;15.60;95.70;;;;;;4997745;28;20030;-67
2024/04/02 10:56:30;;;;;;;0.20;0.20;;;15.70;96.00;;;;;;4998223;28;20465;-69
2024/04/02 10:58:57;;;;;;;4.43;0.20;;;15.70;95.50;;;;;;4997416;28;20373;-69
2024/04/02 11:01:23;;;;;;;0.93;0.40;;;15.60;94.70;;;;;;4997283;28;20034;-69
2024/04/02 11:03:51;;;;;;;2.10;0.40;;;15.50;93.70;;;;;;4997277;28;20029;-70
2024/04/02 11:06:18;;;;;;;2.88;0.60;;;15.40;95.60;;;;;;4996027;28;20038;-70
2024/04/02 11:08:48;;;;;;;0.50;0.30;;;15.50;94.90;;;;;;4997590;28;20053;-71
2024/04/02 11:11:19;;;;;;;2.53;0.32;;;15.40;93.50;;;;;;4997516;28;20026;-68
2024/04/02 11:13:45;;;;;;;1.42;0.30;;;15.40;93.80;;;;;;4997256;28;20473;-70
2024/04/02 11:16:11;;;;;;;0.28;0.15;;;15.50;94.60;;;;;;4997606;28;20377;-70
2024/04/02 11:18:38;;;;;;;1.58;0.28;;;15.60;95.20;;;;;;4997350;28;20049;-70
2024/04/02 11:21:04;;;;;;;0.35;0.20;;;15.60;95.40;;;;;;4997661;28;20037;-70
2024/04/02 11:26:24;;;;;;;1.35;0.25;;;15.60;93.40;;;;;;4997275;28;20049;-70
2024/04/02 11:28:50;;;;;;;1.13;0.30;;;15.70;92.50;;;;;;4997167;28;20018;-67
2024/04/02 11:31:17;;;;;;;0.90;0.30;;;15.90;93.90;;;;;;4996419;28;20146;-70
2024/04/02 11:33:43;;;;;;;0.20;0.20;;;15.80;92.60;;;;;;4997707;28;20033;-70
2024/04/02 11:36:11;;;;;;;0.75;0.30;;;15.90;92.80;;;;;;4997045;28;20019;-70
2024/04/02 11:38:37;;;;;;;5.22;0.40;;;16.10;92.70;;;;;;4996988;28;20466;-71
2024/04/02 11:41:07;;;;;;;0.45;0.30;;;16.20;92.10;;;;;;4996973;28;20045;-72
2024/04/02 11:43:33;;;;;;;1.10;0.28;;;16.20;92.30;;;;;;4997451;28;20030;-72
2024/04/02 11:46:00;;;;;;;0.47;0.28;;;16.40;94.20;;;;;;4996787;28;20043;-71
2024/04/02 11:48:26;;;;;;;0.22;0.20;;;16.50;93.50;;;;;;4996865;28;20022;-71
2024/04/02 11:50:52;;;;;;;2.40;0.30;;;16.70;92.90;;;;;;4995116;28;20392;-71
2024/04/02 11:53:18;;;;;;;0.57;0.30;;;16.70;91.20;;;;;;4996733;28;20027;-72
2024/04/02 11:55:49;;;;;;;0.28;0.20;;;16.70;91.70;;;;;;4996720;28;20027;-71
2024/04/02 12:01:02;;;;;;;0.30;0.30;;;17.00;91.90;;;;;;4996797;28;20031;-69
2024/04/02 12:03:31;;;;;;;0.95;0.20;;;17.00;89.60;;;;;;4996415;28;20397;-70
2024/04/02 12:05:58;;;;;;;1.02;0.20;;;17.00;90.40;;;;;;4996381;28;20374;-70
2024/04/02 12:08:25;;;;;;;0.50;0.10;;;17.00;91.30;;;;;;4996060;28;20043;-73
2024/04/02 12:10:51;;;;;;;1.30;0.20;;;17.30;92.10;;;;;;4996340;28;20037;-73
2024/04/02 12:13:18;;;;;;;1.27;0.30;;;17.40;91.80;;;;;;4996671;28;20041;-71
2024/04/02 12:15:44;;;;;;;0.75;0.30;;;17.50;91.00;;;;;;4996520;28;20035;-74
2024/04/02 12:18:10;;;;;;;0.47;0.30;;;17.40;90.70;;;;;;4996252;28;20038;-73
2024/04/02 12:20:36;;;;;;;0.10;0.10;;;17.40;90.90;;;;;;4995907;28;20377;-68
2024/04/02 12:23:04;;;;;;;0.60;0.20;;;17.40;87.60;;;;;;4996740;28;20108;-69
2024/04/02 12:25:31;;;;;;;0.43;0.22;;;17.20;88.30;;;;;;4996564;28;20061;-69
2024/04/02 12:27:57;;;;;;;0.45;0.30;;;17.30;90.00;;;;;;4996434;28;20081;-69
2024/04/02 12:30:23;;;;;;;1.20;0.30;;;17.50;90.70;;;;;;4996223;28;20377;-69
2024/04/02 12:32:49;;;;;;;0.77;0.22;;;17.80;88.10;;;;;;4996094;28;20026;-69
2024/04/02 12:35:16;;;;;;;0.47;0.30;;;17.80;86.80;;;;;;4995425;28;20043;-69
2024/04/02 12:37:43;;;;;;;0.77;0.28;;;17.70;88.20;;;;;;4995890;28;20034;-70
2024/04/02 12:40:12;;;;;;;1.13;0.28;;;17.50;87.10;;;;;;4996220;28;20027;-71
2024/04/02 12:42:38;;;;;;;0.43;0.20;;;17.60;88.80;;;;;;4994968;28;20026;-70
2024/04/02 12:45:06;;;;;;;0.65;0.20;;;17.60;86.80;;;;;;4995602;28;20393;-70
2024/04/02 12:47:33;;;;;;;0.77;0.32;;;17.30;86.10;;;;;;4995914;28;20026;-68
2024/04/02 12:50:00;;;;;;;3.75;0.30;;;17.00;85.90;;;;;;4995308;28;20058;-69
2024/04/02 12:52:27;;;;;;;3.85;0.43;;;17.10;88.30;;;;;;4995580;28;20041;-69
2024/04/02 12:54:53;;;;;;;1.05;0.32;;;17.10;88.70;;;;;;4995795;28;20033;-70